createdAt,value
2024-02-18T00:00:10.641Z,1020.00
2024-02-18T00:01:10.723Z,1019.95
2024-02-18T00:02:10.620Z,1019.94
2024-02-18T00:03:10.633Z,1019.91
2024-02-18T00:04:10.645Z,1019.99
2024-02-18T00:05:10.640Z,1019.92
2024-02-18T00:06:10.626Z,1019.92
2024-02-18T00:07:10.558Z,1019.90
2024-02-18T00:08:10.569Z,1019.87
2024-02-18T00:09:10.540Z,1019.83
2024-02-18T00:10:10.596Z,1019.84
2024-02-18T00:11:10.540Z,1019.86
2024-02-18T00:12:10.501Z,1019.89
2024-02-18T00:13:10.539Z,1019.88
2024-02-18T00:14:10.648Z,1019.83
2024-02-18T00:15:10.468Z,1019.86
2024-02-18T00:16:10.464Z,1019.84
2024-02-18T00:17:10.438Z,1019.82
2024-02-18T00:18:10.505Z,1019.83
2024-02-18T00:19:10.568Z,1019.82
2024-02-18T00:20:10.501Z,1019.82
2024-02-18T00:21:10.395Z,1019.82
2024-02-18T00:22:10.433Z,1019.86
2024-02-18T00:23:10.360Z,1019.86
2024-02-18T00:24:10.390Z,1019.82
2024-02-18T00:25:10.432Z,1019.86
2024-02-18T00:26:10.340Z,1019.81
2024-02-18T00:27:10.324Z,1019.80
2024-02-18T00:28:10.358Z,1019.78
2024-02-18T00:29:10.327Z,1019.76
2024-02-18T00:30:10.327Z,1019.78
2024-02-18T00:31:10.276Z,1019.78
2024-02-18T00:32:10.282Z,1019.79
2024-02-18T00:33:10.312Z,1019.80
2024-02-18T00:34:10.315Z,1019.82
2024-02-18T00:35:10.319Z,1019.78
2024-02-18T00:36:10.243Z,1019.80
2024-02-18T00:37:10.269Z,1019.78
2024-02-18T00:38:10.203Z,1019.79
2024-02-18T00:39:10.185Z,1019.76
2024-02-18T00:40:10.338Z,1019.70
2024-02-18T00:41:10.180Z,1019.75
2024-02-18T00:42:10.177Z,1019.67
2024-02-18T00:43:10.169Z,1019.65
2024-02-18T00:44:10.147Z,1019.65
2024-02-18T00:45:10.125Z,1019.64
2024-02-18T00:46:18.237Z,1019.63
2024-02-18T00:47:11.141Z,1019.65
2024-02-18T00:48:10.212Z,1019.62
2024-02-18T00:49:10.187Z,1019.64
2024-02-18T00:50:10.063Z,1019.56
2024-02-18T00:51:10.053Z,1019.61
2024-02-18T00:52:10.073Z,1019.57
2024-02-18T00:53:10.051Z,1019.59
2024-02-18T00:54:10.023Z,1019.61
2024-02-18T00:55:10.178Z,1019.56
2024-02-18T00:56:10.008Z,1019.59
2024-02-18T00:57:09.993Z,1019.52
2024-02-18T00:58:10.051Z,1019.58
2024-02-18T00:59:09.959Z,1019.55
2024-02-18T01:00:09.976Z,1019.56
2024-02-18T01:01:17.115Z,1019.52
2024-02-18T01:02:09.924Z,1019.59
2024-02-18T01:03:09.947Z,1019.66
2024-02-18T01:04:10.039Z,1019.55
2024-02-18T01:05:10.104Z,1019.61
2024-02-18T01:06:09.920Z,1019.52
2024-02-18T01:07:09.948Z,1019.51
2024-02-18T01:08:09.873Z,1019.48
2024-02-18T01:09:09.832Z,1019.49
2024-02-18T01:10:09.918Z,1019.48
2024-02-18T01:11:09.877Z,1019.49
2024-02-18T01:12:09.806Z,1019.50
2024-02-18T01:13:09.798Z,1019.52
2024-02-18T01:14:09.787Z,1019.53
2024-02-18T01:15:09.788Z,1019.52
2024-02-18T01:16:09.878Z,1019.47
2024-02-18T01:17:09.746Z,1019.47
2024-02-18T01:18:09.934Z,1019.50
2024-02-18T01:19:09.939Z,1019.44
2024-02-18T01:20:09.777Z,1019.49
2024-02-18T01:21:09.705Z,1019.43
2024-02-18T01:22:09.755Z,1019.42
2024-02-18T01:23:09.694Z,1019.41
2024-02-18T01:24:09.671Z,1019.38
2024-02-18T01:25:09.832Z,1019.41
2024-02-18T01:26:09.643Z,1019.38
2024-02-18T01:27:09.670Z,1019.41
2024-02-18T01:28:09.649Z,1019.41
2024-02-18T01:29:09.634Z,1019.36
2024-02-18T01:30:09.614Z,1019.37
2024-02-18T01:31:09.661Z,1019.31
2024-02-18T01:32:09.606Z,1019.27
2024-02-18T01:33:09.615Z,1019.27
2024-02-18T01:34:09.700Z,1019.30
2024-02-18T01:35:09.598Z,1019.28
2024-02-18T01:36:09.525Z,1019.26
2024-02-18T01:37:09.597Z,1019.26
2024-02-18T01:38:09.505Z,1019.26
2024-02-18T01:39:09.520Z,1019.21
2024-02-18T01:40:09.721Z,1019.24
2024-02-18T01:41:09.486Z,1019.20
2024-02-18T01:42:09.477Z,1019.26
2024-02-18T01:43:09.537Z,1019.23
2024-02-18T01:44:09.480Z,1019.23
2024-02-18T01:45:09.460Z,1019.25
2024-02-18T01:46:09.581Z,1019.22
2024-02-18T01:47:09.420Z,1019.21
2024-02-18T01:48:09.611Z,1019.26
2024-02-18T01:49:09.603Z,1019.19
2024-02-18T01:50:09.591Z,1019.20
2024-02-18T01:51:09.374Z,1019.20
2024-02-18T01:52:09.338Z,1019.15
2024-02-18T01:53:09.361Z,1019.18
2024-02-18T01:54:09.335Z,1019.18
2024-02-18T01:55:09.407Z,1019.14
2024-02-18T01:56:09.320Z,1019.13
2024-02-18T01:57:09.300Z,1019.13
2024-02-18T01:58:09.286Z,1019.15
2024-02-18T01:59:09.284Z,1019.14
2024-02-18T02:00:09.265Z,1019.13
2024-02-18T02:01:09.374Z,1019.18
2024-02-18T02:02:09.273Z,1019.14
2024-02-18T02:03:09.444Z,1019.15
2024-02-18T02:04:09.301Z,1019.09
2024-02-18T02:05:09.234Z,1019.13
2024-02-18T02:06:09.317Z,1019.05
2024-02-18T02:07:09.365Z,1019.02
2024-02-18T02:08:09.164Z,1019.07
2024-02-18T02:09:09.159Z,1019.05
2024-02-18T02:10:09.161Z,1019.06
2024-02-18T02:11:09.224Z,1019.10
2024-02-18T02:12:09.128Z,1019.10
2024-02-18T02:13:09.157Z,1019.12
2024-02-18T02:14:09.101Z,1019.11
2024-02-18T02:15:09.130Z,1019.08
2024-02-18T02:16:09.130Z,1019.03
2024-02-18T02:17:09.077Z,1019.04
2024-02-18T02:18:09.122Z,1019.06
2024-02-18T02:19:09.088Z,1019.06
2024-02-18T02:20:09.093Z,1019.05
2024-02-18T02:21:09.019Z,1019.04
2024-02-18T02:22:09.069Z,1019.05
2024-02-18T02:23:09.025Z,1019.03
2024-02-18T02:24:08.992Z,1019.02
2024-02-18T02:25:09.033Z,1019.02
2024-02-18T02:26:08.960Z,1018.94
2024-02-18T02:27:08.968Z,1018.94
2024-02-18T02:28:09.000Z,1018.92
2024-02-18T02:29:08.935Z,1018.92
2024-02-18T02:30:08.907Z,1018.93
2024-02-18T02:31:09.005Z,1018.93
2024-02-18T02:32:08.898Z,1018.89
2024-02-18T02:33:08.941Z,1018.86
2024-02-18T02:34:09.028Z,1018.90
2024-02-18T02:35:08.930Z,1018.83
2024-02-18T02:36:08.846Z,1018.85
2024-02-18T02:37:08.865Z,1018.83
2024-02-18T02:38:08.819Z,1018.79
2024-02-18T02:39:08.843Z,1018.80
2024-02-18T02:40:08.837Z,1018.74
2024-02-18T02:41:08.815Z,1018.74
2024-02-18T02:42:08.781Z,1018.72
2024-02-18T02:43:08.914Z,1018.73
2024-02-18T02:44:08.755Z,1018.71
2024-02-18T02:45:08.754Z,1018.70
2024-02-18T02:46:08.811Z,1018.66
2024-02-18T02:47:08.736Z,1018.71
2024-02-18T02:48:08.795Z,1018.69
2024-02-18T02:49:08.787Z,1018.67
2024-02-18T02:50:08.726Z,1018.68
2024-02-18T02:51:08.697Z,1018.71
2024-02-18T02:52:08.711Z,1018.68
2024-02-18T02:53:08.659Z,1018.64
2024-02-18T02:54:08.654Z,1018.68
2024-02-18T02:55:08.692Z,1018.65
2024-02-18T02:56:08.633Z,1018.65
2024-02-18T02:57:08.622Z,1018.70
2024-02-18T02:58:08.639Z,1018.66
2024-02-18T02:59:08.596Z,1018.63
2024-02-18T03:00:08.582Z,1018.60
2024-02-18T03:01:08.619Z,1018.65
2024-02-18T03:02:08.568Z,1018.60
2024-02-18T03:03:08.564Z,1018.60
2024-02-18T03:04:08.651Z,1018.61
2024-02-18T03:05:08.543Z,1018.56
2024-02-18T03:06:08.618Z,1018.62
2024-02-18T03:07:08.574Z,1018.55
2024-02-18T03:08:08.486Z,1018.52
2024-02-18T03:09:08.483Z,1018.53
2024-02-18T03:10:08.638Z,1018.53
2024-02-18T03:11:08.455Z,1018.48
2024-02-18T03:12:08.453Z,1018.41
2024-02-18T03:13:08.537Z,1018.41
2024-02-18T03:14:08.426Z,1018.39
2024-02-18T03:15:08.405Z,1018.39
2024-02-18T03:16:08.435Z,1018.44
2024-02-18T03:17:08.382Z,1018.46
2024-02-18T03:18:08.413Z,1018.48
2024-02-18T03:19:08.462Z,1018.47
2024-02-18T03:20:08.773Z,1018.53
2024-02-18T03:21:08.385Z,1018.49
2024-02-18T03:22:08.421Z,1018.42
2024-02-18T03:23:08.366Z,1018.42
2024-02-18T03:24:08.301Z,1018.38
2024-02-18T03:25:08.401Z,1018.43
2024-02-18T03:26:08.296Z,1018.45
2024-02-18T03:27:08.279Z,1018.44
2024-02-18T03:28:08.296Z,1018.43
2024-02-18T03:29:08.257Z,1018.44
2024-02-18T03:30:08.367Z,1018.37
2024-02-18T03:31:08.268Z,1018.43
2024-02-18T03:32:08.234Z,1018.43
2024-02-18T03:33:08.277Z,1018.41
2024-02-18T03:34:08.361Z,1018.36
2024-02-18T03:35:08.453Z,1018.39
2024-02-18T03:36:08.196Z,1018.38
2024-02-18T03:37:08.195Z,1018.36
2024-02-18T03:38:08.174Z,1018.39
2024-02-18T03:39:08.162Z,1018.42
2024-02-18T03:40:08.287Z,1018.37
2024-02-18T03:41:08.221Z,1018.39
2024-02-18T03:42:08.583Z,1018.36
2024-02-18T03:43:08.219Z,1018.34
2024-02-18T03:44:08.175Z,1018.35
2024-02-18T03:45:08.074Z,1018.32
2024-02-18T03:46:08.142Z,1018.30
2024-02-18T03:47:08.197Z,1018.29
2024-02-18T03:48:08.103Z,1018.31
2024-02-18T03:49:08.082Z,1018.27
2024-02-18T03:50:08.349Z,1018.23
2024-02-18T03:51:08.018Z,1018.17
2024-02-18T03:52:08.083Z,1018.17
2024-02-18T03:53:08.007Z,1018.22
2024-02-18T03:54:07.967Z,1018.18
2024-02-18T03:55:08.025Z,1018.15
2024-02-18T03:56:11.402Z,1018.15
2024-02-18T03:57:07.933Z,1018.12
2024-02-18T03:58:08.013Z,1018.11
2024-02-18T03:59:07.940Z,1018.12
2024-02-18T04:00:07.892Z,1018.10
2024-02-18T04:01:07.996Z,1018.11
2024-02-18T04:02:07.870Z,1018.08
2024-02-18T04:03:07.880Z,1018.06
2024-02-18T04:04:07.934Z,1018.03
2024-02-18T04:05:07.970Z,1018.07
2024-02-18T04:06:07.892Z,1018.07
2024-02-18T04:07:07.962Z,1018.03
2024-02-18T04:08:07.794Z,1017.95
2024-02-18T04:09:07.826Z,1017.97
2024-02-18T04:10:07.891Z,1017.99
2024-02-18T04:11:07.769Z,1017.94
2024-02-18T04:12:07.757Z,1017.97
2024-02-18T04:13:07.799Z,1017.97
2024-02-18T04:14:07.734Z,1017.94
2024-02-18T04:15:07.756Z,1017.91
2024-02-18T04:16:07.777Z,1017.93
2024-02-18T04:17:07.705Z,1017.88
2024-02-18T04:18:07.843Z,1017.91
2024-02-18T04:19:07.896Z,1017.92
2024-02-18T04:20:07.694Z,1017.89
2024-02-18T04:21:20.172Z,1017.84
2024-02-18T04:22:07.688Z,1017.87
2024-02-18T04:23:07.638Z,1017.86
2024-02-18T04:24:07.650Z,1017.85
2024-02-18T04:25:07.671Z,1017.89
2024-02-18T04:26:07.649Z,1017.87
2024-02-18T04:27:07.631Z,1017.84
2024-02-18T04:28:07.687Z,1017.84
2024-02-18T04:29:07.562Z,1017.87
2024-02-18T04:30:07.587Z,1017.83
2024-02-18T04:31:07.583Z,1017.83
2024-02-18T04:32:07.540Z,1017.87
2024-02-18T04:33:07.614Z,1017.84
2024-02-18T04:34:07.629Z,1017.85
2024-02-18T04:35:07.619Z,1017.78
2024-02-18T04:36:07.495Z,1017.81
2024-02-18T04:37:07.559Z,1017.76
2024-02-18T04:38:07.476Z,1017.74
2024-02-18T04:39:07.451Z,1017.75
2024-02-18T04:40:07.473Z,1017.75
2024-02-18T04:41:07.423Z,1017.70
2024-02-18T04:42:07.415Z,1017.66
2024-02-18T04:43:07.473Z,1017.71
2024-02-18T04:44:07.399Z,1017.68
2024-02-18T04:45:07.391Z,1017.66
2024-02-18T04:46:07.414Z,1017.63
2024-02-18T04:47:07.388Z,1017.61
2024-02-18T04:48:07.431Z,1017.61
2024-02-18T04:49:07.385Z,1017.58
2024-02-18T04:50:07.316Z,1017.61
2024-02-18T04:51:07.317Z,1017.61
2024-02-18T04:52:07.385Z,1017.60
2024-02-18T04:53:07.301Z,1017.57
2024-02-18T04:54:07.280Z,1017.57
2024-02-18T04:55:07.314Z,1017.60
2024-02-18T04:56:07.250Z,1017.59
2024-02-18T04:57:07.267Z,1017.54
2024-02-18T04:58:07.285Z,1017.56
2024-02-18T04:59:07.220Z,1017.50
2024-02-18T05:00:07.333Z,1017.54
2024-02-18T05:01:07.245Z,1017.60
2024-02-18T05:02:07.202Z,1017.52
2024-02-18T05:03:07.205Z,1017.52
2024-02-18T05:04:07.218Z,1017.56
2024-02-18T05:05:07.227Z,1017.51
2024-02-18T05:06:07.198Z,1017.51
2024-02-18T05:07:07.187Z,1017.50
2024-02-18T05:08:07.116Z,1017.48
2024-02-18T05:09:07.123Z,1017.41
2024-02-18T05:10:07.145Z,1017.41
2024-02-18T05:11:07.085Z,1017.44
2024-02-18T05:12:07.091Z,1017.41
2024-02-18T05:13:07.311Z,1017.46
2024-02-18T05:14:07.045Z,1017.40
2024-02-18T05:15:07.043Z,1017.41
2024-02-18T05:16:07.060Z,1017.37
2024-02-18T05:17:07.032Z,1017.38
2024-02-18T05:18:07.104Z,1017.37
2024-02-18T05:19:07.125Z,1017.33
2024-02-18T05:20:06.976Z,1017.34
2024-02-18T05:21:06.988Z,1017.31
2024-02-18T05:22:07.023Z,1017.31
2024-02-18T05:23:06.961Z,1017.29
2024-02-18T05:24:06.933Z,1017.31
2024-02-18T05:25:06.969Z,1017.27
2024-02-18T05:26:06.918Z,1017.24
2024-02-18T05:27:06.903Z,1017.26
2024-02-18T05:28:06.979Z,1017.22
2024-02-18T05:29:06.886Z,1017.13
2024-02-18T05:30:06.864Z,1017.17
2024-02-18T05:31:06.959Z,1017.22
2024-02-18T05:32:06.854Z,1017.19
2024-02-18T05:33:06.915Z,1017.22
2024-02-18T05:34:06.983Z,1017.17
2024-02-18T05:35:09.121Z,1017.19
2024-02-18T05:36:06.825Z,1017.15
2024-02-18T05:37:06.872Z,1017.13
2024-02-18T05:38:06.797Z,1017.14
2024-02-18T05:39:06.764Z,1017.17
2024-02-18T05:40:06.840Z,1017.19
2024-02-18T05:41:06.744Z,1017.19
2024-02-18T05:42:06.740Z,1017.16
2024-02-18T05:43:06.806Z,1017.11
2024-02-18T05:44:06.705Z,1017.10
2024-02-18T05:45:06.902Z,1017.08
2024-02-18T05:46:06.737Z,1017.07
2024-02-18T05:47:06.674Z,1017.00
2024-02-18T05:48:06.740Z,1017.08
2024-02-18T05:49:06.758Z,1017.02
2024-02-18T05:50:06.959Z,1017.00
2024-02-18T05:51:06.643Z,1016.94
2024-02-18T05:52:06.695Z,1016.92
2024-02-18T05:53:06.619Z,1016.98
2024-02-18T05:54:06.609Z,1016.96
2024-02-18T05:55:06.676Z,1016.94
2024-02-18T05:56:06.602Z,1016.97
2024-02-18T05:57:06.564Z,1016.92
2024-02-18T05:58:06.647Z,1016.95
2024-02-18T05:59:06.540Z,1016.90
2024-02-18T06:00:06.545Z,1016.92
2024-02-18T06:01:06.629Z,1016.89
2024-02-18T06:02:06.551Z,1016.94
2024-02-18T06:03:06.489Z,1016.85
2024-02-18T06:04:06.542Z,1016.91
2024-02-18T06:05:06.517Z,1016.84
2024-02-18T06:06:06.542Z,1016.81
2024-02-18T06:07:06.592Z,1016.84
2024-02-18T06:08:06.450Z,1016.87
2024-02-18T06:09:06.417Z,1016.79
2024-02-18T06:10:06.462Z,1016.84
2024-02-18T06:11:06.501Z,1016.82
2024-02-18T06:12:06.456Z,1016.77
2024-02-18T06:13:06.469Z,1016.77
2024-02-18T06:14:06.375Z,1016.75
2024-02-18T06:15:06.355Z,1016.74
2024-02-18T06:16:06.536Z,1016.74
2024-02-18T06:17:06.330Z,1016.72
2024-02-18T06:18:06.454Z,1016.70
2024-02-18T06:19:06.497Z,1016.71
2024-02-18T06:20:06.370Z,1016.76
2024-02-18T06:21:06.291Z,1016.70
2024-02-18T06:22:06.488Z,1016.72
2024-02-18T06:23:06.274Z,1016.72
2024-02-18T06:24:06.265Z,1016.66
2024-02-18T06:25:06.259Z,1016.69
2024-02-18T06:26:06.226Z,1016.68
2024-02-18T06:27:06.222Z,1016.68
2024-02-18T06:29:06.205Z,1016.71
2024-02-18T06:30:06.184Z,1016.61
2024-02-18T06:31:06.326Z,1016.70
2024-02-18T06:32:06.164Z,1016.66
2024-02-18T06:33:06.198Z,1016.65
2024-02-18T06:34:06.339Z,1016.64
2024-02-18T06:35:06.186Z,1016.57
2024-02-18T06:36:06.117Z,1016.56
2024-02-18T06:37:06.173Z,1016.59
2024-02-18T06:38:06.090Z,1016.62
2024-02-18T06:39:06.130Z,1016.56
2024-02-18T06:40:06.259Z,1016.57
2024-02-18T06:41:06.059Z,1016.50
2024-02-18T06:42:06.053Z,1016.56
2024-02-18T06:43:06.131Z,1016.55
2024-02-18T06:44:06.036Z,1016.52
2024-02-18T06:45:06.024Z,1016.53
2024-02-18T06:46:07.491Z,1016.50
2024-02-18T06:47:06.016Z,1016.54
2024-02-18T06:48:06.018Z,1016.53
2024-02-18T06:49:05.998Z,1016.54
2024-02-18T06:50:06.082Z,1016.51
2024-02-18T06:51:05.944Z,1016.48
2024-02-18T06:52:06.043Z,1016.48
2024-02-18T06:53:05.919Z,1016.47
2024-02-18T06:54:05.929Z,1016.41
2024-02-18T06:55:06.051Z,1016.48
2024-02-18T06:56:05.901Z,1016.40
2024-02-18T06:57:05.879Z,1016.43
2024-02-18T06:58:05.977Z,1016.43
2024-02-18T06:59:05.862Z,1016.43
2024-02-18T07:00:05.874Z,1016.35
2024-02-18T07:01:05.926Z,1016.33
2024-02-18T07:02:05.891Z,1016.29
2024-02-18T07:03:05.812Z,1016.30
2024-02-18T07:04:05.996Z,1016.26
2024-02-18T07:05:05.806Z,1016.29
2024-02-18T07:06:05.821Z,1016.32
2024-02-18T07:07:05.826Z,1016.28
2024-02-18T07:08:05.779Z,1016.27
2024-02-18T07:09:13.197Z,1016.26
2024-02-18T07:10:05.924Z,1016.26
2024-02-18T07:11:05.739Z,1016.24
2024-02-18T07:12:05.710Z,1016.30
2024-02-18T07:13:05.812Z,1016.22
2024-02-18T07:14:05.695Z,1016.23
2024-02-18T07:15:05.680Z,1016.16
2024-02-18T07:16:05.753Z,1016.16
2024-02-18T07:17:05.647Z,1016.19
2024-02-18T07:18:05.804Z,1016.18
2024-02-18T07:19:05.728Z,1016.14
2024-02-18T07:20:05.833Z,1016.12
2024-02-18T07:21:05.616Z,1016.14
2024-02-18T07:22:06.006Z,1016.08
2024-02-18T07:23:05.580Z,1016.07
2024-02-18T07:24:05.617Z,1016.07
2024-02-18T07:25:05.602Z,1016.05
2024-02-18T07:26:05.549Z,1016.06
2024-02-18T07:27:05.542Z,1016.03
2024-02-18T07:28:05.612Z,1016.07
2024-02-18T07:29:05.510Z,1016.03
2024-02-18T07:30:05.520Z,1016.04
2024-02-18T07:31:05.566Z,1015.97
2024-02-18T07:32:05.491Z,1015.98
2024-02-18T07:33:05.590Z,1015.95
2024-02-18T07:34:05.558Z,1015.97
2024-02-18T07:35:05.482Z,1015.87
2024-02-18T07:36:05.442Z,1015.93
2024-02-18T07:37:05.460Z,1015.96
2024-02-18T07:38:05.424Z,1015.86
2024-02-18T07:39:05.422Z,1015.90
2024-02-18T07:40:05.867Z,1015.83
2024-02-18T07:41:05.423Z,1015.84
2024-02-18T07:42:05.381Z,1015.81
2024-02-18T07:43:05.404Z,1015.83
2024-02-18T07:44:05.363Z,1015.80
2024-02-18T07:45:05.359Z,1015.81
2024-02-18T07:46:05.335Z,1015.80
2024-02-18T07:47:05.308Z,1015.82
2024-02-18T07:48:05.404Z,1015.82
2024-02-18T07:49:05.347Z,1015.86
2024-02-18T07:50:05.306Z,1015.81
2024-02-18T07:51:05.278Z,1015.79
2024-02-18T07:52:05.308Z,1015.80
2024-02-18T07:53:05.250Z,1015.78
2024-02-18T07:54:05.249Z,1015.77
2024-02-18T07:55:05.267Z,1015.81
2024-02-18T07:56:05.239Z,1015.74
2024-02-18T07:57:05.199Z,1015.74
2024-02-18T07:58:05.206Z,1015.71
2024-02-18T07:59:05.165Z,1015.75
2024-02-18T08:00:05.171Z,1015.72
2024-02-18T08:01:05.283Z,1015.73
2024-02-18T08:02:05.182Z,1015.70
2024-02-18T08:03:05.136Z,1015.65
2024-02-18T08:04:05.220Z,1015.70
2024-02-18T08:05:05.171Z,1015.70
2024-02-18T08:06:05.119Z,1015.68
2024-02-18T08:07:05.143Z,1015.66
2024-02-18T08:08:05.101Z,1015.68
2024-02-18T08:09:05.069Z,1015.71
2024-02-18T08:10:05.144Z,1015.62
2024-02-18T08:11:05.074Z,1015.61
2024-02-18T08:12:05.042Z,1015.61
2024-02-18T08:13:05.080Z,1015.62
2024-02-18T08:14:05.003Z,1015.59
2024-02-18T08:15:04.987Z,1015.59
2024-02-18T08:16:05.132Z,1015.61
2024-02-18T08:17:04.966Z,1015.61
2024-02-18T08:18:05.013Z,1015.58
2024-02-18T08:19:05.029Z,1015.55
2024-02-18T08:20:04.978Z,1015.56
2024-02-18T08:21:04.932Z,1015.53
2024-02-18T08:22:05.029Z,1015.53
2024-02-18T08:23:04.948Z,1015.46
2024-02-18T08:24:04.905Z,1015.49
2024-02-18T08:25:05.032Z,1015.39
2024-02-18T08:26:04.870Z,1015.39
2024-02-18T08:27:04.876Z,1015.40
2024-02-18T08:28:04.954Z,1015.39
2024-02-18T08:29:04.848Z,1015.44
2024-02-18T08:30:04.836Z,1015.43
2024-02-18T08:31:04.960Z,1015.40
2024-02-18T08:32:04.805Z,1015.39
2024-02-18T08:33:04.820Z,1015.33
2024-02-18T08:34:04.914Z,1015.41
2024-02-18T08:35:05.060Z,1015.36
2024-02-18T08:36:04.777Z,1015.41
2024-02-18T08:37:04.853Z,1015.39
2024-02-18T08:38:04.741Z,1015.37
2024-02-18T08:39:04.714Z,1015.36
2024-02-18T08:40:04.745Z,1015.30
2024-02-18T08:41:04.723Z,1015.28
2024-02-18T08:42:04.684Z,1015.23
2024-02-18T08:43:04.685Z,1015.25
2024-02-18T08:44:04.659Z,1015.20
2024-02-18T08:45:04.645Z,1015.21
2024-02-18T08:46:04.701Z,1015.20
2024-02-18T08:47:04.619Z,1015.22
2024-02-18T08:48:04.691Z,1015.24
2024-02-18T08:50:04.798Z,1015.22
2024-02-18T08:51:04.593Z,1015.19
2024-02-18T08:52:04.629Z,1015.18
2024-02-18T08:53:04.548Z,1015.11
2024-02-18T08:54:04.545Z,1015.18
2024-02-18T08:55:04.589Z,1015.04
2024-02-18T08:56:04.575Z,1015.04
2024-02-18T08:57:04.509Z,1015.04
2024-02-18T08:58:04.608Z,1015.01
2024-02-18T08:59:04.479Z,1015.02
2024-02-18T09:00:04.472Z,1014.96
2024-02-18T09:01:04.546Z,1014.92
2024-02-18T09:02:07.076Z,1014.91
2024-02-18T09:03:04.470Z,1014.87
2024-02-18T09:04:04.638Z,1014.81
2024-02-18T09:05:04.491Z,1014.86
2024-02-18T09:06:04.435Z,1014.87
2024-02-18T09:07:04.457Z,1014.85
2024-02-18T09:08:04.400Z,1014.80
2024-02-18T09:09:04.364Z,1014.77
2024-02-18T09:10:04.479Z,1014.80
2024-02-18T09:11:04.387Z,1014.78
2024-02-18T09:12:04.337Z,1014.75
2024-02-18T09:13:04.392Z,1014.74
2024-02-18T09:14:04.309Z,1014.73
2024-02-18T09:15:04.301Z,1014.69
2024-02-18T09:16:04.316Z,1014.66
2024-02-18T09:17:04.277Z,1014.61
2024-02-18T09:18:04.412Z,1014.66
2024-02-18T09:19:04.322Z,1014.67
2024-02-18T09:20:04.320Z,1014.62
2024-02-18T09:21:04.236Z,1014.62
2024-02-18T09:22:04.238Z,1014.57
2024-02-18T09:23:04.230Z,1014.56
2024-02-18T09:24:04.228Z,1014.60
2024-02-18T09:25:04.216Z,1014.51
2024-02-18T09:26:04.178Z,1014.48
2024-02-18T09:27:04.171Z,1014.45
2024-02-18T09:28:04.262Z,1014.36
2024-02-18T09:29:04.148Z,1014.42
2024-02-18T09:30:04.147Z,1014.42
2024-02-18T09:31:04.225Z,1014.34
2024-02-18T09:32:04.135Z,1014.30
2024-02-18T09:33:04.126Z,1014.30
2024-02-18T09:34:04.355Z,1014.30
2024-02-18T09:35:04.474Z,1014.31
2024-02-18T09:36:04.062Z,1014.28
2024-02-18T09:37:04.222Z,1014.24
2024-02-18T09:38:04.057Z,1014.27
2024-02-18T09:39:04.077Z,1014.25
2024-02-18T09:40:04.146Z,1014.19
2024-02-18T09:41:04.020Z,1014.19
2024-02-18T09:42:03.997Z,1014.17
2024-02-18T09:43:04.060Z,1014.16
2024-02-18T09:44:04.072Z,1014.12
2024-02-18T09:45:03.998Z,1014.24
2024-02-18T09:46:03.993Z,1014.20
2024-02-18T09:47:03.961Z,1014.13
2024-02-18T09:48:04.026Z,1014.18
2024-02-18T09:49:04.015Z,1014.09
2024-02-18T09:50:04.008Z,1014.15
2024-02-18T09:51:03.893Z,1014.12
2024-02-18T09:52:03.946Z,1014.12
2024-02-18T09:53:03.899Z,1014.07
2024-02-18T09:54:03.861Z,1014.15
2024-02-18T09:55:03.958Z,1014.03
2024-02-18T09:56:03.861Z,1014.07
2024-02-18T09:57:03.840Z,1014.00
2024-02-18T09:58:04.062Z,1013.98
2024-02-18T09:59:03.793Z,1013.97
2024-02-18T10:00:03.800Z,1013.96
2024-02-18T10:01:03.871Z,1013.94
2024-02-18T10:02:03.790Z,1013.98
2024-02-18T10:03:03.767Z,1013.97
2024-02-18T10:04:03.881Z,1013.90
2024-02-18T10:05:03.816Z,1013.93
2024-02-18T10:06:03.775Z,1013.82
2024-02-18T10:07:03.761Z,1013.90
2024-02-18T10:08:03.761Z,1013.87
2024-02-18T10:09:03.703Z,1013.79
2024-02-18T10:10:03.731Z,1013.76
2024-02-18T10:11:03.750Z,1013.72
2024-02-18T10:12:03.650Z,1013.73
2024-02-18T10:13:03.838Z,1013.68
2024-02-18T10:14:03.631Z,1013.69
2024-02-18T10:15:03.630Z,1013.68
2024-02-18T10:16:03.672Z,1013.64
2024-02-18T10:17:03.630Z,1013.60
2024-02-18T10:18:03.930Z,1013.58
2024-02-18T10:19:03.672Z,1013.57
2024-02-18T10:20:03.814Z,1013.49
2024-02-18T10:21:03.551Z,1013.49
2024-02-18T10:22:03.675Z,1013.50
2024-02-18T10:23:03.538Z,1013.44
2024-02-18T10:24:03.520Z,1013.48
2024-02-18T10:25:03.556Z,1013.51
2024-02-18T10:26:03.504Z,1013.44
2024-02-18T10:27:03.522Z,1013.43
2024-02-18T10:28:03.588Z,1013.37
2024-02-18T10:29:03.464Z,1013.35
2024-02-18T10:30:03.449Z,1013.32
2024-02-18T10:31:03.504Z,1013.30
2024-02-18T10:32:03.420Z,1013.30
2024-02-18T10:33:03.501Z,1013.34
2024-02-18T10:34:03.637Z,1013.28
2024-02-18T10:35:03.641Z,1013.28
2024-02-18T10:36:03.529Z,1013.24
2024-02-18T10:37:03.428Z,1013.23
2024-02-18T10:38:03.356Z,1013.13
2024-02-18T10:39:03.354Z,1013.21
2024-02-18T10:40:03.469Z,1013.18
2024-02-18T10:41:03.317Z,1013.15
2024-02-18T10:42:03.317Z,1013.14
2024-02-18T10:43:03.462Z,1013.13
2024-02-18T10:44:03.307Z,1013.10
2024-02-18T10:45:03.297Z,1013.09
2024-02-18T10:46:03.369Z,1013.03
2024-02-18T10:47:03.250Z,1013.06
2024-02-18T10:48:03.266Z,1013.05
2024-02-18T10:49:03.349Z,1012.98
2024-02-18T10:50:03.315Z,1012.99
2024-02-18T10:51:03.229Z,1012.94
2024-02-18T10:52:03.243Z,1012.94
2024-02-18T10:53:03.208Z,1012.95
2024-02-18T10:54:03.177Z,1012.97
2024-02-18T10:55:03.351Z,1012.91
2024-02-18T10:56:03.168Z,1012.94
2024-02-18T10:57:03.150Z,1012.91
2024-02-18T10:58:03.174Z,1012.98
2024-02-18T10:59:03.152Z,1012.95
2024-02-18T11:00:03.133Z,1012.90
2024-02-18T11:01:03.220Z,1012.93
2024-02-18T11:02:03.089Z,1012.97
2024-02-18T11:03:03.093Z,1012.92
2024-02-18T11:04:05.006Z,1012.96
2024-02-18T11:05:03.078Z,1012.91
2024-02-18T11:06:03.263Z,1012.97
2024-02-18T11:07:03.202Z,1012.98
2024-02-18T11:08:03.248Z,1012.88
2024-02-18T11:09:03.006Z,1012.92
2024-02-18T11:10:03.060Z,1012.82
2024-02-18T11:11:03.028Z,1012.94
2024-02-18T11:12:02.968Z,1012.89
2024-02-18T11:13:03.018Z,1012.82
2024-02-18T11:14:02.954Z,1012.83
2024-02-18T11:15:02.936Z,1012.81
2024-02-18T11:16:02.996Z,1012.78
2024-02-18T11:17:02.915Z,1012.76
2024-02-18T11:18:03.003Z,1012.78
2024-02-18T11:19:02.968Z,1012.73
2024-02-18T11:20:02.961Z,1012.71
2024-02-18T11:21:02.923Z,1012.61
2024-02-18T11:22:02.934Z,1012.65
2024-02-18T11:23:02.859Z,1012.63
2024-02-18T11:24:02.835Z,1012.63
2024-02-18T11:25:02.896Z,1012.63
2024-02-18T11:26:02.840Z,1012.52
2024-02-18T11:27:02.844Z,1012.54
2024-02-18T11:28:02.807Z,1012.47
2024-02-18T11:29:02.806Z,1012.52
2024-02-18T11:30:02.761Z,1012.48
2024-02-18T11:31:02.805Z,1012.44
2024-02-18T11:32:02.737Z,1012.45
2024-02-18T11:33:02.835Z,1012.40
2024-02-18T11:34:02.866Z,1012.40
2024-02-18T11:35:02.794Z,1012.42
2024-02-18T11:36:02.697Z,1012.41
2024-02-18T11:37:02.735Z,1012.46
2024-02-18T11:38:02.715Z,1012.41
2024-02-18T11:39:02.664Z,1012.42
2024-02-18T11:40:02.694Z,1012.38
2024-02-18T11:41:02.637Z,1012.40
2024-02-18T11:42:02.629Z,1012.40
2024-02-18T11:43:02.708Z,1012.42
2024-02-18T11:44:02.601Z,1012.42
2024-02-18T11:45:02.593Z,1012.39
2024-02-18T11:46:02.595Z,1012.33
2024-02-18T11:47:02.575Z,1012.40
2024-02-18T11:48:02.628Z,1012.33
2024-02-18T11:49:02.626Z,1012.36
2024-02-18T11:50:02.593Z,1012.31
2024-02-18T11:51:02.537Z,1012.35
2024-02-18T11:52:02.604Z,1012.29
2024-02-18T11:53:02.533Z,1012.29
2024-02-18T11:54:02.510Z,1012.26
2024-02-18T11:55:02.522Z,1012.22
2024-02-18T11:56:02.466Z,1012.24
2024-02-18T11:57:02.467Z,1012.26
2024-02-18T11:58:02.529Z,1012.26
2024-02-18T11:59:02.511Z,1012.28
2024-02-18T12:00:02.509Z,1012.28
2024-02-18T12:01:02.524Z,1012.29
2024-02-18T12:02:02.447Z,1012.26
2024-02-18T12:03:02.445Z,1012.30
2024-02-18T12:04:02.417Z,1012.32
2024-02-18T12:05:02.482Z,1012.37
2024-02-18T12:06:02.360Z,1012.41
2024-02-18T12:07:02.393Z,1012.34